Augsburg, Illinois
Current Conditions -  °F | °C
As of 7:55 AM on Thursday 30 Oct 2014 (Local Time) from KSLO Reporting Station
Clear Clear  
Wind Chill:   Ceiling: Unl
Heat Index:   Visibility: 7mi
Dew Point:   Wind: 0mph
Humidity: 95%   Direction: NA
Pressure: 30.18"   Gusts: NA
Location:  38.8463°N, 89.0894°W
Report Text: KSLO 301255Z AUTO 00000KT 7SM CLR 03/03 A3018 RMK AO2 T00320025
Loading
Personal Weather Stations






























Interactive Weather Map
Tropical Storm Tracking
New forecast layout! Learn more

10-Day Weather Forecast

Advertisements
Track Severe Weather on mobile